createdAt,value
2022-11-09T00:05:06.075Z,82.7
2022-11-09T00:55:06.150Z,82.6
2022-11-09T01:05:06.170Z,82.5
2022-11-09T01:15:06.191Z,82.9
2022-11-09T01:25:06.198Z,83.4
2022-11-09T01:35:06.221Z,83.6
2022-11-09T01:45:06.206Z,84
2022-11-09T01:55:06.253Z,84.6
2022-11-09T02:05:06.234Z,85.3
2022-11-09T02:15:06.325Z,85.8
2022-11-09T02:25:06.274Z,86
2022-11-09T02:45:06.471Z,86.4
2022-11-09T02:55:06.546Z,86.9
2022-11-09T03:05:06.373Z,87.6
2022-11-09T03:25:06.438Z,86.8
2022-11-09T03:35:06.419Z,86.3
2022-11-09T03:45:06.479Z,86.2
2022-11-09T03:55:06.466Z,86.8
2022-11-09T04:05:06.503Z,87.4
2022-11-09T04:25:06.542Z,86.4
2022-11-09T04:35:06.527Z,85.7
2022-11-09T04:45:06.571Z,86
2022-11-09T04:55:06.574Z,86.4
2022-11-09T05:05:06.743Z,86.6
2022-11-09T05:15:06.658Z,86.8
2022-11-09T05:45:35.615Z,87.1
2022-11-09T05:55:06.695Z,86.9
2022-11-09T06:05:06.754Z,87.8
2022-11-09T06:15:06.720Z,87.8
2022-11-09T06:25:06.757Z,88
2022-11-09T06:35:06.748Z,88.4
2022-11-09T06:55:06.818Z,89.4
2022-11-09T07:05:06.818Z,89.5
2022-11-09T07:15:06.846Z,89.1
2022-11-09T07:25:06.869Z,88.8
2022-11-09T07:35:06.895Z,88.1
2022-11-09T07:55:06.905Z,85.4
2022-11-09T08:05:06.911Z,84
2022-11-09T08:35:06.975Z,80.1
2022-11-09T08:45:06.965Z,79.5
2022-11-09T09:05:07.033Z,75.8
2022-11-09T09:15:07.020Z,73.3
2022-11-09T09:35:07.063Z,71.2
2022-11-09T09:45:07.088Z,70.9
2022-11-09T09:55:07.115Z,71.9
2022-11-09T10:05:07.124Z,72
2022-11-09T10:35:07.174Z,69.4
2022-11-09T10:45:07.199Z,69
2022-11-09T10:55:07.200Z,69.6
2022-11-09T11:05:07.230Z,69.3
2022-11-09T11:15:07.246Z,68.8
2022-11-09T11:25:07.243Z,70.1
2022-11-09T11:35:07.244Z,69.7
2022-11-09T11:45:38.356Z,69.4
2022-11-09T11:55:07.293Z,69.3
2022-11-09T12:05:07.371Z,69.4
2022-11-09T12:15:07.325Z,70
2022-11-09T12:25:07.425Z,70.4
2022-11-09T12:35:07.352Z,70.6
2022-11-09T12:45:07.404Z,70.6
2022-11-09T12:55:07.393Z,71.1
2022-11-09T13:05:07.432Z,71.1
2022-11-09T13:15:07.440Z,71.2
2022-11-09T13:25:07.466Z,70.9
2022-11-09T13:35:07.480Z,70.8
2022-11-09T13:45:07.525Z,70.9
2022-11-09T13:55:07.482Z,71.3
2022-11-09T14:05:07.593Z,72
2022-11-09T14:15:07.551Z,71.6
2022-11-09T14:25:07.608Z,71.5
2022-11-09T14:45:07.615Z,70.8
2022-11-09T14:55:07.628Z,70.9
2022-11-09T15:05:07.755Z,70.4
2022-11-09T15:15:07.650Z,70.4
2022-11-09T15:25:07.805Z,70.9
2022-11-09T15:35:07.678Z,71.7
2022-11-09T15:45:08.136Z,72.6
2022-11-09T15:55:07.724Z,72.8
2022-11-09T16:05:07.753Z,73.4
2022-11-09T16:15:07.757Z,74.1
2022-11-09T16:25:07.806Z,74.8
2022-11-09T16:35:26.000Z,75.8
2022-11-09T16:55:07.855Z,76.5
2022-11-09T17:05:07.833Z,76.6
2022-11-09T17:15:07.882Z,77.2
2022-11-09T17:45:07.951Z,78.3
2022-11-09T18:05:07.997Z,78.5
2022-11-09T18:15:07.979Z,79
2022-11-09T18:25:08.026Z,79.3
2022-11-09T18:35:08.035Z,79.1
2022-11-09T18:45:08.085Z,79.2
2022-11-09T18:55:08.111Z,79.1
2022-11-09T19:05:08.098Z,79.4
2022-11-09T19:15:08.083Z,79.6
2022-11-09T19:25:08.141Z,80.1
2022-11-09T19:35:08.107Z,80.3
2022-11-09T19:45:08.190Z,80.4
2022-11-09T19:55:08.191Z,80.4
2022-11-09T20:05:08.219Z,80.7
2022-11-09T20:25:08.369Z,81.2
2022-11-09T20:35:08.265Z,81.8
2022-11-09T20:45:08.294Z,81.6
2022-11-09T20:55:08.272Z,81.5
2022-11-09T21:05:08.379Z,81.3
2022-11-09T21:15:08.338Z,81.2
2022-11-09T21:35:08.391Z,81.3
2022-11-09T21:45:08.384Z,82
2022-11-09T21:55:08.434Z,82.3
2022-11-09T22:05:08.434Z,82.2
2022-11-09T22:15:08.480Z,82.4
2022-11-09T22:25:08.519Z,82.1
2022-11-09T22:35:08.515Z,82.2
2022-11-09T22:45:08.533Z,82.2
2022-11-09T22:55:08.538Z,82.3
2022-11-09T23:05:08.526Z,82.6
2022-11-09T23:15:08.588Z,82.4
2022-11-09T23:35:08.627Z,82.5
2022-11-09T23:45:08.616Z,82.6
2022-11-09T23:55:08.640Z,82.7
